Time;durP1;ratioP1;P1;durP2;ratioP2;P2;SDS_P1;SDS_P2;PMS_P1;PMS_P2;Temp;Humidity;BMP_temperature;BMP_pressure;BME280_temperature;BME280_humidity;BME280_pressure;Samples;Min_cycle;Max_cycle;Signal;HPM_P1;HPM_P2
2022/03/16 00:00:27;;;;;;;52.35;29.48;;;6.70;99.90;;;;;;4996351;28;20544;-78
2022/03/16 00:02:53;;;;;;;55.85;29.20;;;6.70;99.90;;;;;;4996321;28;20046;-77
2022/03/16 00:05:19;;;;;;;53.58;29.80;;;6.70;99.90;;;;;;4978957;28;20073;-77
2022/03/16 00:07:45;;;;;;;50.35;29.52;;;6.60;99.90;;;;;;4996442;28;20043;-77
2022/03/16 00:10:11;;;;;;;56.42;31.50;;;6.60;99.90;;;;;;4996330;28;20110;-77
2022/03/16 00:12:39;;;;;;;54.33;31.33;;;6.60;99.90;;;;;;4978737;28;20433;-77
2022/03/16 00:15:05;;;;;;;54.90;30.65;;;6.50;99.90;;;;;;4978471;28;20149;-77
2022/03/16 00:17:31;;;;;;;59.63;30.90;;;6.50;99.90;;;;;;4996438;28;20050;-77
2022/03/16 00:19:57;;;;;;;55.92;32.03;;;6.50;99.90;;;;;;4996201;28;20042;-77
2022/03/16 00:22:23;;;;;;;55.22;29.40;;;6.50;99.90;;;;;;4996067;28;20039;-81
2022/03/16 00:24:48;;;;;;;52.17;30.83;;;6.50;99.90;;;;;;4995754;28;20038;-81
2022/03/16 00:27:14;;;;;;;57.60;29.83;;;6.40;99.90;;;;;;4996066;28;20065;-79
2022/03/16 00:29:39;;;;;;;57.63;30.70;;;6.40;99.90;;;;;;4995747;28;20470;-79
2022/03/16 00:32:06;;;;;;;57.00;30.15;;;6.40;99.90;;;;;;4978680;28;20418;-79
2022/03/16 00:34:31;;;;;;;54.38;30.85;;;6.30;99.90;;;;;;4995892;28;20084;-79
2022/03/16 00:36:57;;;;;;;58.75;31.70;;;6.30;99.90;;;;;;4995834;28;20043;-79
2022/03/16 00:39:23;;;;;;;69.05;32.88;;;6.40;99.90;;;;;;4995748;28;20133;-79
2022/03/16 00:41:48;;;;;;;62.53;34.63;;;6.30;99.90;;;;;;4995705;28;20038;-79
2022/03/16 00:44:14;;;;;;;61.38;33.28;;;6.30;99.90;;;;;;4978335;28;20054;-79
2022/03/16 00:46:41;;;;;;;62.30;32.35;;;6.30;99.90;;;;;;4978438;28;20047;-79
2022/03/16 00:49:07;;;;;;;61.15;33.25;;;6.30;99.90;;;;;;4995543;28;20521;-79
2022/03/16 00:51:33;;;;;;;61.50;31.88;;;6.30;99.90;;;;;;4995583;28;20046;-78
2022/03/16 00:53:58;;;;;;;61.85;33.13;;;6.30;99.90;;;;;;4995243;28;20069;-78
2022/03/16 00:56:24;;;;;;;60.17;32.80;;;6.30;99.90;;;;;;4977874;28;20038;-78
2022/03/16 00:58:50;;;;;;;65.78;33.75;;;6.30;99.90;;;;;;4995495;28;20039;-79
2022/03/16 01:01:15;;;;;;;67.72;33.83;;;6.30;99.90;;;;;;4978076;28;20058;-79
2022/03/16 01:03:41;;;;;;;71.55;33.33;;;6.20;99.90;;;;;;4995275;28;20125;-79
2022/03/16 01:06:15;;;;;;;67.18;35.50;;;6.20;99.90;;;;;;4995323;28;20093;-78
2022/03/16 01:08:41;;;;;;;65.63;33.72;;;6.20;99.90;;;;;;4977830;28;20053;-78
2022/03/16 01:11:07;;;;;;;60.22;32.42;;;6.20;99.90;;;;;;4995253;28;20054;-79
2022/03/16 01:13:33;;;;;;;59.00;31.15;;;6.20;99.90;;;;;;4995180;28;20057;-79
2022/03/16 01:16:07;;;;;;;61.28;32.47;;;6.10;99.90;;;;;;4977917;28;20058;-79
2022/03/16 01:18:33;;;;;;;59.45;32.05;;;6.00;99.90;;;;;;4995112;28;20042;-79
2022/03/16 01:20:58;;;;;;;66.72;33.72;;;6.00;99.90;;;;;;4995025;28;20046;-79
2022/03/16 01:23:24;;;;;;;58.70;31.90;;;6.00;99.90;;;;;;4977349;28;20054;-79
2022/03/16 01:25:50;;;;;;;58.75;31.90;;;5.90;99.90;;;;;;4994834;28;20038;-79
2022/03/16 01:28:15;;;;;;;56.53;30.00;;;5.80;99.90;;;;;;4994277;28;20141;-79
2022/03/16 01:30:42;;;;;;;58.10;31.80;;;5.80;99.90;;;;;;4994768;28;20456;-78
2022/03/16 01:33:08;;;;;;;57.55;32.20;;;5.70;99.90;;;;;;4994792;28;20054;-78
2022/03/16 01:35:34;;;;;;;54.95;31.38;;;5.70;99.90;;;;;;4994778;28;20072;-78
2022/03/16 01:37:59;;;;;;;64.55;33.67;;;5.70;99.90;;;;;;4994743;28;20046;-78
2022/03/16 01:40:25;;;;;;;62.08;33.15;;;5.60;99.90;;;;;;4977437;28;20053;-78
2022/03/16 01:42:50;;;;;;;62.15;32.88;;;5.60;99.90;;;;;;4994659;28;20082;-78
2022/03/16 01:45:16;;;;;;;58.03;32.95;;;5.50;99.90;;;;;;4994640;28;20078;-78
2022/03/16 01:47:42;;;;;;;60.38;33.38;;;5.60;99.90;;;;;;4977694;28;20390;-78
2022/03/16 01:50:09;;;;;;;62.95;32.58;;;5.50;99.90;;;;;;4994595;28;20057;-78
2022/03/16 01:52:36;;;;;;;62.92;32.00;;;5.50;99.90;;;;;;4977165;28;20084;-78
2022/03/16 01:55:05;;;;;;;57.83;32.42;;;5.40;99.90;;;;;;4994536;28;20125;-78
2022/03/16 01:57:33;;;;;;;60.97;33.88;;;5.40;99.90;;;;;;4994466;28;20046;-78
2022/03/16 01:59:59;;;;;;;62.30;34.55;;;5.50;99.90;;;;;;4994453;28;20048;-78
2022/03/16 02:02:25;;;;;;;69.97;36.40;;;5.60;99.90;;;;;;4994397;28;20046;-78
2022/03/16 02:04:51;;;;;;;69.50;35.08;;;5.50;99.90;;;;;;4994298;28;20039;-78
2022/03/16 02:07:17;;;;;;;64.40;34.42;;;5.60;99.90;;;;;;4976979;28;20054;-78
2022/03/16 02:09:43;;;;;;;71.38;34.95;;;5.50;99.90;;;;;;4977048;28;20520;-78
2022/03/16 02:12:12;;;;;;;74.50;37.10;;;5.50;99.90;;;;;;4994171;28;20046;-78
2022/03/16 02:14:37;;;;;;;68.22;35.85;;;5.50;99.90;;;;;;4994276;28;20078;-78
2022/03/16 02:17:04;;;;;;;66.55;34.45;;;5.40;99.90;;;;;;4994275;28;20085;-78
2022/03/16 02:19:30;;;;;;;68.97;36.35;;;5.40;99.90;;;;;;4994182;28;20118;-78
2022/03/16 02:22:04;;;;;;;65.40;36.40;;;5.30;99.90;;;;;;4976796;28;20133;-78
2022/03/16 02:24:29;;;;;;;64.65;33.75;;;5.30;99.90;;;;;;4994413;28;20100;-78
2022/03/16 02:26:56;;;;;;;63.60;34.42;;;5.30;99.90;;;;;;4994244;28;20441;-78
2022/03/16 02:29:22;;;;;;;64.22;33.22;;;5.30;99.90;;;;;;4993790;28;20104;-78
2022/03/16 02:31:48;;;;;;;66.97;35.83;;;5.20;99.90;;;;;;4976726;28;20050;-78
2022/03/16 02:34:13;;;;;;;70.35;35.10;;;5.20;99.90;;;;;;4976439;28;20039;-78
2022/03/16 02:36:39;;;;;;;64.88;34.00;;;5.10;99.90;;;;;;4994096;28;20046;-78
2022/03/16 02:39:05;;;;;;;67.50;37.00;;;5.10;99.90;;;;;;4995380;28;20069;-78
2022/03/16 02:41:31;;;;;;;70.15;37.25;;;5.10;99.90;;;;;;4998012;28;20112;-78
2022/03/16 02:43:57;;;;;;;71.55;39.30;;;5.10;99.90;;;;;;4997882;28;20054;-78
2022/03/16 02:46:23;;;;;;;79.10;40.78;;;5.10;99.90;;;;;;4997913;28;20042;-80
2022/03/16 02:48:49;;;;;;;68.85;37.70;;;5.10;99.90;;;;;;4980491;28;20065;-79
2022/03/16 02:51:14;;;;;;;72.45;37.15;;;5.00;99.90;;;;;;4980070;28;20385;-79
2022/03/16 02:53:40;;;;;;;72.40;37.30;;;5.10;99.90;;;;;;4997791;28;20045;-79
2022/03/16 02:56:07;;;;;;;78.45;39.05;;;5.00;99.90;;;;;;4997822;28;20093;-79
2022/03/16 02:58:33;;;;;;;72.85;38.63;;;5.00;99.90;;;;;;4997789;28;20039;-78
2022/03/16 03:00:59;;;;;;;75.72;39.22;;;5.00;99.90;;;;;;4997636;28;20154;-77
2022/03/16 03:03:25;;;;;;;76.80;38.42;;;5.00;99.90;;;;;;4997577;28;20046;-77
2022/03/16 03:05:52;;;;;;;72.18;38.42;;;5.00;99.90;;;;;;4997597;28;20042;-77
2022/03/16 03:08:18;;;;;;;66.28;36.15;;;5.00;99.90;;;;;;4980286;28;20046;-77
2022/03/16 03:10:44;;;;;;;71.13;38.08;;;5.00;99.90;;;;;;4997502;28;20046;-81
2022/03/16 03:13:11;;;;;;;74.28;38.17;;;5.00;99.90;;;;;;4997399;28;20042;-81
2022/03/16 03:15:37;;;;;;;70.53;37.78;;;5.00;99.90;;;;;;4997338;28;20121;-82
2022/03/16 03:18:03;;;;;;;66.75;37.00;;;4.90;99.90;;;;;;4997377;28;20146;-82
2022/03/16 03:20:28;;;;;;;77.75;38.75;;;4.90;99.90;;;;;;4997592;28;20050;-79
2022/03/16 03:22:55;;;;;;;73.53;39.38;;;4.90;99.90;;;;;;4997211;28;20070;-78
2022/03/16 03:25:21;;;;;;;72.28;40.17;;;4.90;99.90;;;;;;4997162;28;20046;-78
2022/03/16 03:27:46;;;;;;;81.55;42.35;;;4.90;99.90;;;;;;4997185;28;20053;-78
2022/03/16 03:30:12;;;;;;;80.20;40.97;;;4.90;99.90;;;;;;4977605;28;20131;-78
2022/03/16 03:32:39;;;;;;;85.10;42.38;;;4.90;99.90;;;;;;4977379;28;20585;-78
2022/03/16 03:35:06;;;;;;;83.93;42.78;;;4.90;99.90;;;;;;4977397;28;20134;-78
2022/03/16 03:37:32;;;;;;;74.28;40.15;;;4.90;99.90;;;;;;4977526;28;20090;-78
2022/03/16 03:39:58;;;;;;;75.65;39.03;;;4.90;99.90;;;;;;4960371;28;20051;-78
2022/03/16 03:42:24;;;;;;;76.43;38.80;;;4.90;99.90;;;;;;4959906;28;20043;-79
2022/03/16 03:44:50;;;;;;;73.97;39.78;;;4.90;99.90;;;;;;4977403;28;20562;-78
2022/03/16 03:47:16;;;;;;;83.18;39.80;;;4.80;99.90;;;;;;4959881;28;20057;-78
2022/03/16 03:49:43;;;;;;;79.88;39.50;;;4.90;99.90;;;;;;4976754;28;20134;-78
2022/03/16 03:52:09;;;;;;;75.78;39.05;;;4.80;99.90;;;;;;4960111;28;20087;-78
2022/03/16 03:54:35;;;;;;;76.80;37.60;;;4.90;99.90;;;;;;4977220;28;20047;-78
2022/03/16 03:57:01;;;;;;;79.05;38.78;;;4.80;99.90;;;;;;4960067;28;20057;-78
2022/03/16 03:59:27;;;;;;;72.72;38.92;;;4.80;99.90;;;;;;4977093;28;20051;-78
2022/03/16 04:01:53;;;;;;;84.10;41.17;;;4.80;99.90;;;;;;4976909;28;20057;-78
2022/03/16 04:04:19;;;;;;;81.20;40.80;;;4.80;99.90;;;;;;4976985;28;20118;-78
2022/03/16 04:06:45;;;;;;;76.15;40.03;;;4.90;99.90;;;;;;4959843;28;20050;-78
2022/03/16 04:09:10;;;;;;;84.28;39.45;;;4.80;99.90;;;;;;4976585;28;20053;-78
2022/03/16 04:11:37;;;;;;;75.72;37.80;;;4.90;99.90;;;;;;4976917;28;20569;-78
2022/03/16 04:14:03;;;;;;;75.68;37.33;;;4.80;99.90;;;;;;4976845;28;20051;-78
2022/03/16 04:16:29;;;;;;;83.45;39.20;;;4.80;99.90;;;;;;4976648;28;20494;-78
2022/03/16 04:18:54;;;;;;;77.68;39.80;;;4.80;99.90;;;;;;4976808;28;20109;-78
2022/03/16 04:21:20;;;;;;;69.55;36.95;;;4.80;99.90;;;;;;4976658;28;20055;-78
2022/03/16 04:23:46;;;;;;;77.10;38.17;;;4.90;99.90;;;;;;4959070;28;20062;-78
2022/03/16 04:26:12;;;;;;;71.95;37.45;;;4.80;99.90;;;;;;4976606;28;20050;-78
2022/03/16 04:28:37;;;;;;;75.13;38.20;;;4.80;99.90;;;;;;4965965;28;20070;-78
2022/03/16 04:31:03;;;;;;;74.35;38.42;;;4.80;99.90;;;;;;4996395;28;20478;-78
2022/03/16 04:33:29;;;;;;;79.57;37.17;;;4.80;99.90;;;;;;4995948;28;20046;-78
2022/03/16 04:35:55;;;;;;;73.72;36.58;;;4.70;99.90;;;;;;4978425;28;20042;-78
2022/03/16 04:38:21;;;;;;;69.85;36.95;;;4.70;99.90;;;;;;4978160;28;20130;-78
2022/03/16 04:40:47;;;;;;;79.38;36.80;;;4.70;99.90;;;;;;4995817;28;20042;-78
2022/03/16 04:43:13;;;;;;;77.75;38.67;;;4.70;99.90;;;;;;4978377;28;20054;-78
2022/03/16 04:45:39;;;;;;;78.93;39.25;;;4.70;99.90;;;;;;4995508;28;20508;-79
2022/03/16 04:48:08;;;;;;;80.53;38.10;;;4.70;99.90;;;;;;4995577;28;20057;-78
2022/03/16 04:50:38;;;;;;;78.10;38.15;;;4.70;99.90;;;;;;4995655;28;20034;-78
2022/03/16 04:53:03;;;;;;;78.35;38.17;;;4.70;99.90;;;;;;4995552;28;20054;-79
2022/03/16 04:55:29;;;;;;;76.80;38.95;;;4.70;99.90;;;;;;4995510;28;20081;-78
2022/03/16 04:57:55;;;;;;;72.53;37.83;;;4.70;99.90;;;;;;4995551;28;20070;-82
2022/03/16 05:00:21;;;;;;;77.82;40.17;;;4.70;99.90;;;;;;4995444;28;20097;-78
2022/03/16 05:02:47;;;;;;;82.97;41.70;;;4.70;99.90;;;;;;4994533;28;20228;-77
2022/03/16 05:05:13;;;;;;;78.72;38.78;;;4.70;99.90;;;;;;4978105;28;20130;-77
2022/03/16 05:07:40;;;;;;;79.35;39.70;;;4.70;99.90;;;;;;4995399;28;20050;-78
2022/03/16 05:10:06;;;;;;;80.75;38.17;;;4.70;99.90;;;;;;4995281;28;20162;-78
2022/03/16 05:12:37;;;;;;;82.88;41.72;;;4.70;99.90;;;;;;4977718;28;20046;-79
2022/03/16 05:15:04;;;;;;;83.70;40.28;;;4.70;99.90;;;;;;4995023;28;20066;-79
2022/03/16 05:17:30;;;;;;;78.20;37.35;;;4.70;99.90;;;;;;4977452;28;20050;-79
2022/03/16 05:19:56;;;;;;;75.30;36.85;;;4.70;99.90;;;;;;4994982;28;20101;-79
2022/03/16 05:22:21;;;;;;;82.35;40.30;;;4.80;99.90;;;;;;4995000;28;20089;-79
2022/03/16 05:24:47;;;;;;;85.18;38.85;;;4.80;99.90;;;;;;4994893;28;20050;-79
2022/03/16 05:27:12;;;;;;;72.93;36.50;;;4.80;99.90;;;;;;4977379;28;20046;-80
2022/03/16 05:29:38;;;;;;;78.07;38.75;;;4.80;99.90;;;;;;4994648;28;20145;-78
2022/03/16 05:32:04;;;;;;;77.28;37.85;;;4.80;99.90;;;;;;4994881;28;20434;-78
2022/03/16 05:34:30;;;;;;;78.28;38.63;;;4.80;99.90;;;;;;4994847;28;20046;-78
2022/03/16 05:36:56;;;;;;;75.95;37.35;;;4.80;99.90;;;;;;4976919;28;20100;-78
2022/03/16 05:39:21;;;;;;;72.47;38.15;;;4.80;99.90;;;;;;4994485;28;20394;-78
2022/03/16 05:41:47;;;;;;;72.75;37.40;;;4.80;99.90;;;;;;4977321;28;20054;-78
2022/03/16 05:44:12;;;;;;;72.65;36.55;;;4.90;99.90;;;;;;4994550;28;20046;-78
2022/03/16 05:46:38;;;;;;;78.05;36.92;;;4.80;99.90;;;;;;4994614;28;20038;-78
2022/03/16 05:49:04;;;;;;;73.47;37.78;;;4.80;99.90;;;;;;4994592;28;20042;-78
2022/03/16 05:51:29;;;;;;;70.78;36.90;;;4.90;99.90;;;;;;4994541;28;20038;-78
2022/03/16 05:53:55;;;;;;;71.68;34.95;;;4.90;99.90;;;;;;4994237;28;20042;-78
2022/03/16 05:56:20;;;;;;;75.07;39.05;;;4.90;99.90;;;;;;4976995;28;20050;-78
2022/03/16 05:58:46;;;;;;;76.25;37.88;;;4.90;99.90;;;;;;4994517;28;20038;-78
2022/03/16 06:01:11;;;;;;;74.32;37.67;;;5.00;99.90;;;;;;4977002;28;20058;-78
2022/03/16 06:03:37;;;;;;;82.28;39.63;;;4.90;99.90;;;;;;4994172;28;20145;-78
2022/03/16 06:06:04;;;;;;;71.93;38.10;;;5.00;99.90;;;;;;4976767;28;20121;-78
2022/03/16 06:08:30;;;;;;;64.72;36.97;;;5.00;99.90;;;;;;4993999;28;20125;-78
2022/03/16 06:10:56;;;;;;;70.20;37.50;;;5.00;99.90;;;;;;4976944;28;20129;-77
2022/03/16 06:13:21;;;;;;;76.72;37.20;;;5.10;99.90;;;;;;4994054;28;20500;-78
2022/03/16 06:15:47;;;;;;;69.95;37.70;;;5.10;99.90;;;;;;4993885;28;20093;-78
2022/03/16 06:18:12;;;;;;;64.25;36.10;;;5.10;99.90;;;;;;4977015;28;20054;-77
2022/03/16 06:20:39;;;;;;;71.70;36.83;;;5.10;99.90;;;;;;4993975;28;20401;-78
2022/03/16 06:23:05;;;;;;;71.40;35.78;;;5.10;99.90;;;;;;4993598;28;20068;-78
2022/03/16 06:25:34;;;;;;;67.05;36.03;;;5.10;99.90;;;;;;4993935;28;20437;-78
2022/03/16 06:28:00;;;;;;;71.43;37.90;;;5.10;99.90;;;;;;4993956;28;20038;-78
2022/03/16 06:30:26;;;;;;;69.10;35.88;;;5.10;99.90;;;;;;4993948;28;20066;-79
2022/03/16 06:32:51;;;;;;;67.53;35.55;;;5.10;99.90;;;;;;4994124;28;20043;-79
2022/03/16 06:35:17;;;;;;;66.55;33.88;;;5.10;99.90;;;;;;4976663;28;20046;-79
2022/03/16 06:37:44;;;;;;;71.03;35.42;;;5.10;99.90;;;;;;4993841;28;20047;-78
2022/03/16 06:40:10;;;;;;;70.10;34.17;;;5.20;99.90;;;;;;4976393;28;20062;-78
2022/03/16 06:42:52;;;;;;;59.25;33.58;;;5.10;99.90;;;;;;4993734;28;20444;-78
2022/03/16 06:45:17;;;;;;;60.17;34.33;;;5.20;99.90;;;;;;4993808;28;20049;-78
2022/03/16 06:47:43;;;;;;;63.60;34.97;;;5.10;99.90;;;;;;4976346;28;20046;-78
2022/03/16 06:50:10;;;;;;;59.63;33.80;;;5.10;99.90;;;;;;4993925;28;20084;-78
2022/03/16 06:52:35;;;;;;;62.08;33.33;;;5.10;99.90;;;;;;4993926;28;20048;-78
2022/03/16 06:55:01;;;;;;;67.20;35.45;;;5.20;99.90;;;;;;4993855;28;20050;-78
2022/03/16 06:57:27;;;;;;;60.95;33.05;;;5.20;99.90;;;;;;4993652;28;20046;-78
2022/03/16 06:59:52;;;;;;;65.25;34.63;;;5.20;99.90;;;;;;4993814;28;20093;-79
2022/03/16 07:02:18;;;;;;;60.72;34.22;;;5.30;99.90;;;;;;4993759;28;20050;-78
2022/03/16 07:04:43;;;;;;;65.18;36.03;;;5.30;99.90;;;;;;4993720;28;20078;-79
2022/03/16 07:07:09;;;;;;;67.03;35.80;;;5.30;99.90;;;;;;4976170;28;20504;-78
2022/03/16 07:09:34;;;;;;;61.00;33.90;;;5.40;99.90;;;;;;4993807;28;20092;-78
2022/03/16 07:12:01;;;;;;;72.07;37.50;;;5.40;99.90;;;;;;4993730;28;20068;-78
2022/03/16 07:14:32;;;;;;;62.47;36.40;;;5.40;99.90;;;;;;4993756;28;20046;-78
2022/03/16 07:17:02;;;;;;;65.70;35.83;;;5.50;99.90;;;;;;4993440;28;20481;-78
2022/03/16 07:19:28;;;;;;;65.22;35.38;;;5.50;99.90;;;;;;4993629;28;20045;-78
2022/03/16 07:21:59;;;;;;;60.42;33.58;;;5.60;99.90;;;;;;4993457;28;20521;-77
2022/03/16 07:24:25;;;;;;;64.13;33.90;;;5.60;99.90;;;;;;4995595;28;20078;-77
2022/03/16 07:26:52;;;;;;;65.72;35.42;;;5.70;99.90;;;;;;4987767;28;20133;-78
2022/03/16 07:29:18;;;;;;;66.70;36.20;;;5.80;99.90;;;;;;4996441;28;20561;-77
2022/03/16 07:31:44;;;;;;;64.18;35.13;;;5.90;99.90;;;;;;4996841;28;20129;-77
2022/03/16 07:34:09;;;;;;;64.25;32.60;;;6.00;99.90;;;;;;4996806;28;20488;-77
2022/03/16 07:36:35;;;;;;;55.55;33.47;;;6.10;99.90;;;;;;4996803;28;20121;-77
2022/03/16 07:39:01;;;;;;;57.00;31.45;;;6.10;99.90;;;;;;4996412;28;20096;-77
2022/03/16 07:41:26;;;;;;;60.05;32.10;;;6.10;99.90;;;;;;4978940;28;20489;-77
2022/03/16 07:43:52;;;;;;;55.63;31.40;;;6.20;99.90;;;;;;4996456;28;20038;-77
2022/03/16 07:46:18;;;;;;;52.15;30.75;;;6.20;99.90;;;;;;4978983;28;20046;-77
2022/03/16 07:48:45;;;;;;;56.17;31.30;;;6.30;99.90;;;;;;4996217;28;20157;-77
2022/03/16 07:51:11;;;;;;;54.25;31.83;;;6.40;99.90;;;;;;4978838;28;20054;-77
2022/03/16 07:53:38;;;;;;;52.22;30.23;;;6.60;99.90;;;;;;4996518;28;20038;-77
2022/03/16 07:56:04;;;;;;;58.17;30.20;;;6.70;99.90;;;;;;4978959;28;20042;-77
2022/03/16 07:58:29;;;;;;;52.50;31.15;;;6.80;99.90;;;;;;4996463;28;20046;-77
2022/03/16 08:00:55;;;;;;;49.95;28.60;;;6.90;99.90;;;;;;4996259;28;20385;-77
2022/03/16 08:03:21;;;;;;;48.55;29.15;;;6.90;99.90;;;;;;4996303;28;20600;-77
2022/03/16 08:05:47;;;;;;;46.63;28.58;;;7.00;99.90;;;;;;4996027;28;20386;-77
2022/03/16 08:08:13;;;;;;;48.20;27.13;;;7.00;99.90;;;;;;4995921;28;20515;-77
2022/03/16 08:10:39;;;;;;;45.70;26.60;;;7.10;99.90;;;;;;4978451;28;20050;-77
2022/03/16 08:13:04;;;;;;;47.17;27.20;;;7.10;99.90;;;;;;4978455;28;20049;-77
2022/03/16 08:15:30;;;;;;;47.03;27.80;;;7.20;99.90;;;;;;4978669;28;20108;-76
2022/03/16 08:17:56;;;;;;;47.38;27.65;;;7.30;99.90;;;;;;4995674;28;20050;-77
2022/03/16 08:20:21;;;;;;;47.17;27.10;;;7.40;99.90;;;;;;5001093;28;20030;-78
2022/03/16 08:22:47;;;;;;;47.08;28.55;;;7.40;99.90;;;;;;5014872;28;20042;-78
2022/03/16 08:25:13;;;;;;;47.35;27.15;;;7.40;99.90;;;;;;5015479;28;20048;-78
2022/03/16 08:27:40;;;;;;;43.20;26.65;;;7.50;99.90;;;;;;5014729;28;20049;-79
2022/03/16 08:30:07;;;;;;;50.90;27.60;;;7.50;99.90;;;;;;5014956;28;20048;-79
2022/03/16 08:32:33;;;;;;;44.63;28.23;;;7.50;99.90;;;;;;5014241;28;20049;-78
2022/03/16 08:34:59;;;;;;;47.90;28.60;;;7.70;99.90;;;;;;5012223;28;20045;-79
2022/03/16 08:37:25;;;;;;;47.78;27.98;;;7.80;99.90;;;;;;4996737;28;20069;-79
2022/03/16 08:39:50;;;;;;;48.78;27.38;;;7.90;99.90;;;;;;5014528;28;20504;-78
2022/03/16 08:42:17;;;;;;;43.50;27.52;;;8.00;99.90;;;;;;5014126;28;20057;-78
2022/03/16 08:44:43;;;;;;;44.78;27.35;;;8.10;99.90;;;;;;5014522;28;20046;-78
2022/03/16 08:47:11;;;;;;;44.20;26.50;;;8.20;99.90;;;;;;5014871;28;20129;-78
2022/03/16 08:49:37;;;;;;;41.17;24.40;;;8.30;99.90;;;;;;5014793;28;20404;-78
2022/03/16 08:52:05;;;;;;;43.30;25.85;;;8.40;99.90;;;;;;5014227;28;20477;-78
2022/03/16 08:54:30;;;;;;;41.35;24.08;;;8.50;99.90;;;;;;5014610;28;20056;-77
2022/03/16 08:56:56;;;;;;;43.33;25.73;;;8.50;99.90;;;;;;5014426;28;20038;-78
2022/03/16 08:59:23;;;;;;;37.55;24.80;;;8.60;99.90;;;;;;5014720;28;20374;-78
2022/03/16 09:01:50;;;;;;;42.42;25.70;;;8.70;99.90;;;;;;5013628;28;20412;-78
2022/03/16 09:04:16;;;;;;;40.28;23.73;;;8.90;99.90;;;;;;5014546;28;20124;-78
2022/03/16 09:06:42;;;;;;;42.50;23.95;;;9.10;99.90;;;;;;5014744;28;20595;-79
2022/03/16 09:09:08;;;;;;;36.20;22.48;;;9.30;99.90;;;;;;5014170;28;20053;-78
2022/03/16 09:11:34;;;;;;;40.63;24.50;;;9.40;99.90;;;;;;5014368;28;20046;-78
2022/03/16 09:14:00;;;;;;;37.28;22.58;;;9.60;99.90;;;;;;5013898;28;20052;-78
2022/03/16 09:16:27;;;;;;;34.38;21.35;;;9.70;99.90;;;;;;4996535;28;20060;-79
2022/03/16 09:18:54;;;;;;;40.03;24.25;;;9.90;99.90;;;;;;5014132;28;20504;-78
2022/03/16 09:21:19;;;;;;;34.58;22.15;;;10.00;99.90;;;;;;5013991;28;20087;-78
2022/03/16 09:23:45;;;;;;;35.75;23.55;;;10.00;99.90;;;;;;4996561;28;20231;-79
2022/03/16 09:26:11;;;;;;;37.28;22.00;;;10.20;99.90;;;;;;5013566;28;20038;-78
2022/03/16 09:28:37;;;;;;;36.08;21.88;;;10.10;99.90;;;;;;5013760;28;20061;-78
2022/03/16 09:31:02;;;;;;;38.88;22.42;;;10.20;99.90;;;;;;5013907;28;20048;-78
2022/03/16 09:33:31;;;;;;;34.92;22.10;;;10.20;99.90;;;;;;5014081;28;20042;-78
2022/03/16 09:35:57;;;;;;;37.50;22.73;;;10.20;99.90;;;;;;5014021;28;20108;-78
2022/03/16 09:38:24;;;;;;;38.33;23.80;;;10.10;99.90;;;;;;5013495;28;20445;-78
2022/03/16 09:40:52;;;;;;;37.22;23.40;;;10.30;99.90;;;;;;5013821;28;20401;-78
2022/03/16 09:43:21;;;;;;;34.85;23.77;;;10.30;99.90;;;;;;5013203;28;20386;-78
2022/03/16 09:45:55;;;;;;;37.90;24.08;;;10.40;99.90;;;;;;5014067;28;20041;-79
2022/03/16 09:48:23;;;;;;;39.28;24.27;;;10.40;99.90;;;;;;5013212;28;20050;-78
2022/03/16 09:50:53;;;;;;;39.95;24.75;;;10.60;99.90;;;;;;4996313;28;20093;-78
2022/03/16 09:53:20;;;;;;;37.20;23.60;;;10.70;99.90;;;;;;5013518;28;20065;-78
2022/03/16 09:55:46;;;;;;;37.50;24.23;;;10.80;99.90;;;;;;4995907;28;20067;-79
2022/03/16 09:58:12;;;;;;;35.15;22.50;;;11.00;99.90;;;;;;5013437;28;20050;-78
2022/03/16 10:00:38;;;;;;;38.08;24.10;;;11.00;99.90;;;;;;5013636;28;20048;-78
2022/03/16 10:03:04;;;;;;;37.75;23.50;;;11.20;99.90;;;;;;5013271;28;20065;-78
2022/03/16 10:05:30;;;;;;;42.47;24.30;;;11.30;99.90;;;;;;5013614;28;20100;-78
2022/03/16 10:08:02;;;;;;;39.13;23.80;;;11.40;99.90;;;;;;4995808;28;20045;-77
2022/03/16 10:13:21;;;;;;;41.92;24.95;;;11.60;99.90;;;;;;5013505;28;20409;-78
2022/03/16 10:15:52;;;;;;;34.72;22.33;;;11.70;99.90;;;;;;4983847;28;20160;-78
2022/03/16 10:18:21;;;;;;;38.22;22.15;;;11.70;99.90;;;;;;5016230;28;20050;-80
2022/03/16 10:20:47;;;;;;;38.25;21.83;;;11.70;99.90;;;;;;4998405;28;20555;-78
2022/03/16 10:23:17;;;;;;;38.72;22.25;;;11.70;99.90;;;;;;5015290;28;20042;-78
2022/03/16 10:25:46;;;;;;;36.17;21.17;;;11.70;99.90;;;;;;5010132;28;20511;-78
2022/03/16 10:28:28;;;;;;;34.05;21.38;;;11.80;99.90;;;;;;5013012;28;20062;-78
2022/03/16 10:30:55;;;;;;;31.63;19.65;;;11.80;99.90;;;;;;5013278;28;20050;-78
2022/03/16 10:33:24;;;;;;;36.20;20.27;;;12.00;99.90;;;;;;5010415;28;20073;-79
2022/03/16 10:36:11;;;;;;;31.42;20.55;;;12.10;99.90;;;;;;5033219;28;20084;-79
2022/03/16 10:38:42;;;;;;;34.15;20.00;;;12.10;99.90;;;;;;5033138;28;20049;-79
2022/03/16 10:46:34;;;;;;;27.98;18.00;;;12.20;99.90;;;;;;5032863;28;20065;-79
2022/03/16 10:46:46;;;;;;;25.73;16.88;;;12.50;99.90;;;;;;5032924;28;20060;-79
2022/03/16 10:49:16;;;;;;;26.48;16.85;;;12.60;99.90;;;;;;5032583;28;20057;-79
2022/03/16 10:51:45;;;;;;;26.48;17.98;;;12.50;99.90;;;;;;4998017;28;20077;-79
2022/03/16 10:54:15;;;;;;;30.33;16.90;;;12.50;99.90;;;;;;4995592;28;20042;-79
2022/03/16 10:56:41;;;;;;;28.30;17.83;;;12.50;99.90;;;;;;4995097;28;20050;-79
2022/03/16 10:59:08;;;;;;;26.23;17.63;;;12.70;99.90;;;;;;5012999;28;20046;-79
2022/03/16 11:01:39;;;;;;;25.20;13.95;;;12.70;99.90;;;;;;4998312;28;20489;-78
2022/03/16 11:04:06;;;;;;;25.73;12.20;;;12.80;99.90;;;;;;4999257;28;20056;-78
2022/03/16 11:06:34;;;;;;;24.45;12.90;;;12.70;99.90;;;;;;4997092;28;20050;-78
2022/03/16 11:09:01;;;;;;;22.70;13.20;;;12.90;99.90;;;;;;4997823;28;20563;-78
2022/03/16 11:14:13;;;;;;;18.17;11.90;;;12.90;99.90;;;;;;5016584;28;20053;-78
2022/03/16 11:16:40;;;;;;;17.73;11.88;;;13.00;99.90;;;;;;4999459;28;20049;-79
2022/03/16 11:19:08;;;;;;;18.45;11.52;;;13.00;99.90;;;;;;4998293;28;20046;-77
2022/03/16 11:21:45;;;;;;;19.20;10.63;;;13.10;99.90;;;;;;4999005;28;20104;-78
2022/03/16 11:24:18;;;;;;;16.98;10.82;;;13.00;99.90;;;;;;5010310;28;20461;-78
2022/03/16 11:26:44;;;;;;;;;;;13.00;99.90;;;;;;5019026;28;20463;-78
2022/03/16 11:29:34;;;;;;;18.85;11.20;;;12.80;99.90;;;;;;5018035;28;20412;-78
2022/03/16 11:32:19;;;;;;;19.48;11.57;;;13.00;99.90;;;;;;5018610;28;20126;-77
2022/03/16 11:34:55;;;;;;;19.58;11.55;;;13.10;99.90;;;;;;5018157;28;20045;-77
2022/03/16 11:37:46;;;;;;;20.75;12.73;;;13.00;99.90;;;;;;5036174;28;20034;-77
2022/03/16 11:40:20;;;;;;;18.67;12.68;;;13.20;99.90;;;;;;5036067;28;20045;-78
2022/03/16 11:43:04;;;;;;;21.30;13.95;;;13.20;99.90;;;;;;5018364;28;20124;-78
2022/03/16 11:45:43;;;;;;;19.10;13.25;;;13.30;99.90;;;;;;5035728;28;20107;-78
2022/03/16 11:48:31;;;;;;;21.55;13.35;;;13.40;99.90;;;;;;5017841;28;20496;-78
2022/03/16 11:51:08;;;;;;;21.55;12.27;;;13.50;99.90;;;;;;5018140;28;20041;-78
2022/03/16 11:53:51;;;;;;;18.67;12.73;;;13.60;99.90;;;;;;5017842;28;20388;-79
2022/03/16 11:56:41;;;;;;;18.25;11.43;;;13.70;99.90;;;;;;5018188;28;20060;-78
2022/03/16 11:59:22;;;;;;;18.52;11.25;;;13.90;99.90;;;;;;5018342;28;20130;-78
2022/03/16 12:01:50;;;;;;;21.00;11.07;;;14.00;99.90;;;;;;5017823;28;20099;-85
2022/03/16 12:04:29;;;;;;;17.58;10.77;;;14.10;99.90;;;;;;5017624;28;20156;-85
2022/03/16 12:07:05;;;;;;;23.35;12.73;;;14.10;99.90;;;;;;5035449;28;20049;-79
2022/03/16 12:09:51;;;;;;;20.55;11.45;;;14.20;99.90;;;;;;5035534;28;20124;-84
2022/03/16 12:12:51;;;;;;;20.80;12.98;;;14.20;99.90;;;;;;5017374;28;20112;-88
2022/03/16 12:15:38;;;;;;;21.67;13.18;;;14.20;99.90;;;;;;5035415;28;20120;-88
2022/03/16 12:18:07;;;;;;;18.95;11.68;;;14.40;99.90;;;;;;5035474;28;20049;-89
2022/03/16 12:20:43;;;;;;;19.55;12.32;;;14.40;99.90;;;;;;5018542;28;20488;-90
2022/03/16 12:23:16;;;;;;;20.83;11.98;;;14.40;99.90;;;;;;5017627;28;20041;-79
2022/03/16 12:25:52;;;;;;;19.52;11.77;;;14.50;99.90;;;;;;5034880;28;20044;-79
2022/03/16 12:31:13;;;;;;;19.23;11.77;;;14.40;99.90;;;;;;5034495;28;20120;-78
2022/03/16 12:33:41;;;;;;;17.67;10.50;;;14.40;99.90;;;;;;5035162;28;20037;-78
2022/03/16 12:36:13;;;;;;;20.13;11.50;;;14.50;99.90;;;;;;5016917;28;20092;-79
2022/03/16 12:38:44;;;;;;;21.27;11.18;;;14.40;99.90;;;;;;5001597;28;20469;-78
2022/03/16 12:44:01;;;;;;;19.92;12.80;;;14.70;99.90;;;;;;4996910;28;20049;-79
2022/03/16 12:46:33;;;;;;;20.52;12.07;;;14.60;99.90;;;;;;4997140;28;20100;-79
2022/03/16 12:49:06;;;;;;;17.42;11.63;;;14.60;99.90;;;;;;4997588;28;20734;-79
2022/03/16 12:51:47;;;;;;;21.17;12.20;;;14.60;99.90;;;;;;4996623;28;20072;-79